Time;durP1;ratioP1;P1;durP2;ratioP2;P2;SDS_P1;SDS_P2;PMS_P1;PMS_P2;Temp;Humidity;BMP_temperature;BMP_pressure;BME280_temperature;BME280_humidity;BME280_pressure;Samples;Min_cycle;Max_cycle;Signal;HPM_P1;HPM_P2
2020/12/15 00:02:20;;;;;;;;;;;20.80;99.90;;;;;;4914758;29;19923;-83
2020/12/15 00:04:46;;;;;;;;;;;20.80;99.90;;;;;;4921809;29;20301;-83
2020/12/15 00:07:13;;;;;;;;;;;20.80;99.90;;;;;;4915223;29;19957;-83
2020/12/15 00:09:40;;;;;;;;;;;20.80;99.90;;;;;;4929524;29;19930;-82
2020/12/15 00:12:06;;;;;;;;;;;20.90;99.90;;;;;;4926691;29;19913;-81
2020/12/15 00:14:33;;;;;;;;;;;20.80;99.90;;;;;;4921198;29;19955;-82
2020/12/15 00:17:00;;;;;;;;;;;21.00;99.90;;;;;;4922271;29;19911;-81
2020/12/15 00:19:27;;;;;;;;;;;21.00;99.90;;;;;;4919451;29;19911;-83
2020/12/15 00:21:54;;;;;;;;;;;21.00;99.90;;;;;;4917913;29;19915;-82
2020/12/15 00:24:24;;;;;;;;;;;21.10;99.90;;;;;;4920754;29;19910;-84
2020/12/15 00:26:50;;;;;;;;;;;21.00;99.90;;;;;;4908355;29;19908;-84
2020/12/15 00:29:17;;;;;;;;;;;21.00;99.90;;;;;;4927062;29;20593;-83
2020/12/15 00:31:44;;;;;;;;;;;21.10;99.90;;;;;;4919581;29;19931;-83
2020/12/15 00:34:11;;;;;;;;;;;21.00;99.90;;;;;;4911863;29;20064;-83
2020/12/15 00:36:37;;;;;;;;;;;21.00;99.90;;;;;;4918917;29;20354;-84
2020/12/15 00:39:04;;;;;;;;;;;21.00;99.90;;;;;;4913804;29;19917;-83
2020/12/15 00:41:32;;;;;;;;;;;21.00;99.90;;;;;;4915888;29;20259;-81
2020/12/15 00:44:03;;;;;;;;;;;21.00;99.90;;;;;;4921482;29;19998;-84
2020/12/15 00:46:30;;;;;;;;;;;21.00;99.90;;;;;;4917064;29;20358;-80
2020/12/15 00:48:59;;;;;;;;;;;21.10;99.90;;;;;;4915299;29;19911;-81
2020/12/15 00:51:29;;;;;;;;;;;21.20;99.90;;;;;;4919693;29;19926;-81
2020/12/15 00:53:55;;;;;;;;;;;21.20;99.90;;;;;;4923395;29;19911;-80
2020/12/15 00:56:23;;;;;;;;;;;21.30;99.90;;;;;;4922884;29;19915;-81
2020/12/15 00:58:50;;;;;;;;;;;21.40;99.90;;;;;;4924735;29;19910;-80
2020/12/15 01:01:20;;;;;;;;;;;21.40;99.90;;;;;;4924502;29;19911;-79
2020/12/15 01:03:46;;;;;;;;;;;21.50;99.90;;;;;;4917434;29;20370;-81
2020/12/15 01:06:13;;;;;;;;;;;21.50;99.90;;;;;;4919501;29;19939;-80
2020/12/15 01:08:40;;;;;;;;;;;21.50;99.90;;;;;;4917758;29;19954;-81
2020/12/15 01:11:09;;;;;;;;;;;21.50;99.90;;;;;;4937147;29;20376;-81
2020/12/15 01:13:36;;;;;;;;;;;21.50;99.90;;;;;;4922989;29;19907;-82
2020/12/15 01:16:06;;;;;;;;;;;21.60;99.90;;;;;;4920762;29;19918;-81
2020/12/15 01:18:35;;;;;;;;;;;21.60;99.90;;;;;;4920518;29;20321;-81
2020/12/15 01:21:03;;;;;;;;;;;21.70;99.90;;;;;;4923998;29;19946;-82
2020/12/15 01:23:30;;;;;;;;;;;21.70;99.90;;;;;;4917390;29;19938;-82
2020/12/15 01:25:57;;;;;;;;;;;21.80;99.90;;;;;;4921650;29;19938;-81
2020/12/15 01:28:24;;;;;;;;;;;21.80;99.20;;;;;;4919230;29;19919;-80
2020/12/15 01:30:50;;;;;;;;;;;21.70;99.00;;;;;;4915110;29;19962;-81
2020/12/15 01:33:17;;;;;;;;;;;21.80;99.10;;;;;;4921948;29;19911;-83
2020/12/15 01:35:45;;;;;;;;;;;21.90;99.50;;;;;;4924053;29;20297;-80
2020/12/15 01:38:14;;;;;;;;;;;22.00;99.60;;;;;;4929515;29;19911;-81
2020/12/15 01:40:47;;;;;;;;;;;22.40;99.30;;;;;;4930556;29;19918;-83
2020/12/15 01:43:14;;;;;;;;;;;22.80;97.60;;;;;;4919406;29;19919;-82
2020/12/15 01:45:41;;;;;;;;;;;23.00;96.50;;;;;;4928485;29;20662;-82
2020/12/15 01:48:07;;;;;;;;;;;22.90;96.30;;;;;;4918331;29;20277;-81
2020/12/15 01:50:34;;;;;;;;;;;22.90;96.20;;;;;;4914652;29;19911;-81
2020/12/15 01:53:03;;;;;;;;;;;22.90;96.60;;;;;;4935718;29;20362;-81
2020/12/15 01:55:30;;;;;;;;;;;22.80;96.60;;;;;;4917845;29;19918;-81
2020/12/15 01:57:57;;;;;;;;;;;22.80;96.30;;;;;;4920733;29;19918;-82
2020/12/15 02:00:26;;;;;;;;;;;22.70;96.60;;;;;;4933887;29;20003;-84
2020/12/15 02:02:52;;;;;;;;;;;22.60;96.20;;;;;;4922869;29;19923;-82
2020/12/15 02:05:20;;;;;;;;;;;22.60;96.30;;;;;;4925171;29;19911;-82
2020/12/15 02:07:48;;;;;;;;;;;22.60;96.80;;;;;;4919863;29;20220;-81
2020/12/15 02:10:15;;;;;;;;;;;22.70;96.90;;;;;;4919012;29;20047;-82
2020/12/15 02:12:42;;;;;;;;;;;22.80;96.40;;;;;;4917735;29;19914;-82
2020/12/15 02:15:08;;;;;;;;;;;23.00;96.30;;;;;;4929751;29;19919;-82
2020/12/15 02:17:35;;;;;;;;;;;23.20;95.50;;;;;;4924273;29;19915;-82
2020/12/15 02:20:08;;;;;;;;;;;23.20;96.40;;;;;;4934467;29;19914;-81
2020/12/15 02:22:35;;;;;;;;;;;23.00;96.70;;;;;;4930489;29;19919;-82
2020/12/15 02:25:04;;;;;;;;;;;22.90;97.50;;;;;;4918362;29;19922;-81
2020/12/15 02:27:31;;;;;;;;;;;22.70;97.70;;;;;;4916289;29;20018;-82
2020/12/15 02:29:58;;;;;;;;;;;22.50;98.40;;;;;;4922410;29;19963;-82
2020/12/15 02:32:25;;;;;;;;;;;22.50;98.70;;;;;;4921129;29;19911;-82
2020/12/15 02:34:56;;;;;;;;;;;22.40;98.30;;;;;;4916518;29;19911;-81
2020/12/15 02:37:32;;;;;;;;;;;22.30;98.10;;;;;;4917056;29;19922;-82
2020/12/15 02:40:04;;;;;;;;;;;22.30;97.70;;;;;;4916982;29;19938;-82
2020/12/15 02:42:49;;;;;;;;;;;22.30;97.70;;;;;;4904902;29;19927;-82
2020/12/15 02:45:19;;;;;;;;;;;22.40;97.20;;;;;;4918466;29;19910;-81
2020/12/15 02:47:53;;;;;;;;;;;22.40;97.30;;;;;;4936390;29;19907;-79
2020/12/15 02:50:23;;;;;;;;;;;22.50;96.70;;;;;;4919800;29;19998;-80
2020/12/15 02:52:50;;;;;;;;;;;22.50;96.40;;;;;;4916282;29;19914;-81
2020/12/15 02:55:20;;;;;;;;;;;22.40;97.10;;;;;;4919901;29;19911;-81
2020/12/15 02:57:50;;;;;;;;;;;22.40;97.30;;;;;;4924579;29;19918;-82
2020/12/15 03:00:17;;;;;;;;;;;22.30;97.00;;;;;;4898805;29;19908;-81
2020/12/15 03:02:46;;;;;;;;;;;22.20;97.20;;;;;;4932718;29;19925;-82
2020/12/15 03:05:14;;;;;;;;;;;22.20;97.30;;;;;;4918722;29;20289;-82
2020/12/15 03:07:41;;;;;;;;;;;22.30;97.40;;;;;;4918115;29;19915;-81
2020/12/15 03:10:08;;;;;;;;;;;22.40;97.40;;;;;;4918848;29;19935;-82
2020/12/15 03:12:34;;;;;;;;;;;22.50;96.90;;;;;;4923826;29;20028;-81
2020/12/15 03:15:01;;;;;;;;;;;22.60;96.30;;;;;;4932857;29;20212;-83
2020/12/15 03:17:37;;;;;;;;;;;22.50;96.70;;;;;;4921481;29;19911;-81
2020/12/15 03:20:04;;;;;;;;;;;22.50;97.50;;;;;;4925545;29;20353;-81
2020/12/15 03:22:31;;;;;;;;;;;22.40;97.70;;;;;;4933228;29;19922;-82
2020/12/15 03:24:57;;;;;;;;;;;22.40;98.00;;;;;;4905654;29;19941;-81
2020/12/15 03:27:24;;;;;;;;;;;22.30;97.60;;;;;;4924327;29;20235;-81
2020/12/15 03:29:51;;;;;;;;;;;22.20;98.00;;;;;;4918308;29;20231;-80
2020/12/15 03:32:18;;;;;;;;;;;22.20;98.40;;;;;;4919662;29;20014;-81
2020/12/15 03:34:49;;;;;;;;;;;22.20;98.80;;;;;;4920017;29;19911;-83
2020/12/15 03:37:15;;;;;;;;;;;22.10;99.20;;;;;;4922415;29;20280;-80
2020/12/15 03:39:42;;;;;;;;;;;22.10;99.80;;;;;;4928802;29;19917;-83
2020/12/15 03:42:09;;;;;;;;;;;22.10;99.70;;;;;;4932602;29;19911;-83
2020/12/15 03:44:37;;;;;;;;;;;22.00;99.60;;;;;;4923528;29;19962;-83
2020/12/15 03:47:03;;;;;;;;;;;22.00;99.80;;;;;;4918519;29;19908;-82
2020/12/15 03:49:35;;;;;;;;;;;22.00;99.90;;;;;;4915973;29;19954;-82
2020/12/15 03:52:01;;;;;;;;;;;22.00;99.90;;;;;;4916735;29;19907;-82
2020/12/15 03:54:28;;;;;;;;;;;21.90;99.90;;;;;;4929188;29;19922;-82
2020/12/15 03:56:56;;;;;;;;;;;21.90;99.90;;;;;;4912514;29;19918;-82
2020/12/15 03:59:22;;;;;;;;;;;21.90;99.90;;;;;;4917369;29;19907;-82
2020/12/15 04:01:49;;;;;;;;;;;21.90;99.90;;;;;;4933416;29;19933;-82
2020/12/15 04:04:16;;;;;;;;;;;21.90;99.90;;;;;;4915499;29;19934;-83
2020/12/15 04:06:42;;;;;;;;;;;21.90;99.90;;;;;;4918730;29;19911;-83
2020/12/15 04:09:09;;;;;;;;;;;21.80;99.90;;;;;;4923088;29;19917;-83
2020/12/15 04:11:36;;;;;;;;;;;21.80;99.90;;;;;;4922177;29;19966;-85
2020/12/15 04:14:02;;;;;;;;;;;21.80;99.90;;;;;;4933437;29;19993;-83
2020/12/15 04:16:29;;;;;;;;;;;21.80;99.90;;;;;;4919957;29;20353;-85
2020/12/15 04:18:56;;;;;;;;;;;21.80;99.90;;;;;;4919799;29;20302;-85
2020/12/15 04:21:22;;;;;;;;;;;21.80;99.90;;;;;;4930080;29;19911;-83
2020/12/15 04:23:49;;;;;;;;;;;21.80;99.90;;;;;;4929012;29;20400;-84
2020/12/15 04:26:16;;;;;;;;;;;21.80;99.90;;;;;;4908381;29;19907;-85
2020/12/15 04:28:45;;;;;;;;;;;21.90;99.90;;;;;;4904811;29;19930;-82
2020/12/15 04:31:12;;;;;;;;;;;21.80;99.90;;;;;;4928035;29;19910;-79
2020/12/15 04:33:39;;;;;;;;;;;21.90;99.90;;;;;;4934467;29;19922;-81
2020/12/15 04:36:05;;;;;;;;;;;22.00;99.60;;;;;;4931970;29;19985;-86
2020/12/15 04:38:32;;;;;;;;;;;22.00;99.80;;;;;;4922758;29;19915;-79
2020/12/15 04:41:04;;;;;;;;;;;22.00;99.40;;;;;;4922196;29;20009;-83
2020/12/15 04:43:31;;;;;;;;;;;22.00;99.60;;;;;;4931466;29;19932;-79
2020/12/15 04:46:00;;;;;;;;;;;22.00;99.50;;;;;;4940924;29;19911;-79
2020/12/15 04:48:29;;;;;;;;;;;22.00;99.50;;;;;;4931169;29;19930;-81
2020/12/15 04:50:58;;;;;;;;;;;22.00;99.20;;;;;;4924409;29;19915;-81
2020/12/15 04:53:27;;;;;;;;;;;22.00;99.30;;;;;;4920195;29;19965;-84
2020/12/15 04:55:55;;;;;;;;;;;22.10;99.10;;;;;;4921474;29;19913;-81
2020/12/15 04:58:24;;;;;;;;;;;22.00;99.40;;;;;;4905226;29;20347;-81
2020/12/15 05:00:53;;;;;;;;;;;22.00;99.40;;;;;;4901432;29;20362;-81
2020/12/15 05:03:23;;;;;;;;;;;22.10;98.90;;;;;;4900772;29;20374;-79
2020/12/15 05:05:54;;;;;;;;;;;22.10;99.10;;;;;;4900572;29;20366;-82
2020/12/15 05:08:21;;;;;;;;;;;22.10;99.00;;;;;;4901414;29;19918;-81
2020/12/15 05:10:48;;;;;;;;;;;22.00;99.00;;;;;;4900383;29;19933;-82
2020/12/15 05:13:16;;;;;;;;;;;22.10;99.10;;;;;;4915506;29;20062;-78
2020/12/15 05:15:43;;;;;;;;;;;22.00;99.20;;;;;;4920973;29;19914;-80
2020/12/15 05:18:09;;;;;;;;;;;22.10;99.10;;;;;;4932295;29;20389;-78
2020/12/15 05:20:38;;;;;;;;;;;22.10;99.30;;;;;;4934278;29;20409;-81
2020/12/15 05:23:04;;;;;;;;;;;22.00;99.30;;;;;;4925724;29;19923;-79
2020/12/15 05:25:35;;;;;;;;;;;22.00;99.60;;;;;;4921333;29;19923;-85
2020/12/15 05:28:12;;;;;;;;;;;22.00;99.60;;;;;;4919552;29;19967;-83
2020/12/15 05:30:39;;;;;;;;;;;22.10;99.70;;;;;;4924281;29;19926;-85
2020/12/15 05:33:14;;;;;;;;;;;22.00;99.00;;;;;;4936360;29;19918;-77
2020/12/15 05:35:43;;;;;;;;;;;22.00;99.10;;;;;;4920734;29;19915;-78
2020/12/15 05:38:11;;;;;;;;;;;22.00;99.20;;;;;;4930667;29;20437;-79
2020/12/15 05:40:45;;;;;;;;;;;22.00;99.20;;;;;;4923373;29;19914;-84
2020/12/15 05:43:26;;;;;;;;;;;22.00;99.10;;;;;;4930006;29;19921;-77
2020/12/15 05:45:53;;;;;;;;;;;22.00;99.30;;;;;;4920618;29;19990;-78
2020/12/15 05:48:26;;;;;;;;;;;22.00;98.80;;;;;;4930595;29;19914;-80
2020/12/15 05:51:02;;;;;;;;;;;22.00;99.00;;;;;;4928576;29;19969;-79
2020/12/15 05:53:31;;;;;;;;;;;22.00;98.70;;;;;;4921679;29;19915;-79
2020/12/15 05:55:59;;;;;;;;;;;22.00;98.70;;;;;;4908466;29;19955;-79
2020/12/15 05:58:26;;;;;;;;;;;22.00;98.60;;;;;;4915326;29;20029;-77
2020/12/15 06:00:52;;;;;;;;;;;22.00;98.60;;;;;;4918052;29;20018;-79
2020/12/15 06:03:19;;;;;;;;;;;22.00;98.70;;;;;;4901213;29;19937;-80
2020/12/15 06:05:54;;;;;;;;;;;22.10;98.50;;;;;;4915183;29;20280;-81
2020/12/15 06:08:21;;;;;;;;;;;22.10;98.60;;;;;;4915952;29;20001;-79
2020/12/15 06:10:50;;;;;;;;;;;22.00;98.60;;;;;;4913688;29;19931;-86
2020/12/15 06:13:21;;;;;;;;;;;22.00;98.80;;;;;;4889229;29;19926;-81
2020/12/15 06:15:48;;;;;;;;;;;22.00;98.60;;;;;;4897461;29;19937;-84
2020/12/15 06:18:18;;;;;;;;;;;22.00;98.70;;;;;;4901715;29;19950;-79
2020/12/15 06:20:46;;;;;;;;;;;22.00;98.80;;;;;;4906666;29;19911;-79
2020/12/15 06:23:14;;;;;;;;;;;22.00;98.60;;;;;;4918392;29;19919;-81
2020/12/15 06:25:47;;;;;;;;;;;22.00;98.70;;;;;;4925698;29;19919;-80
2020/12/15 06:28:17;;;;;;;;;;;22.00;98.50;;;;;;4915841;29;19910;-80
2020/12/15 06:30:47;;;;;;;;;;;22.10;98.60;;;;;;4897189;29;19911;-81
2020/12/15 06:33:14;;;;;;;;;;;22.10;98.50;;;;;;4915839;29;19918;-82
2020/12/15 06:35:44;;;;;;;;;;;22.20;98.30;;;;;;4914227;29;19911;-81
2020/12/15 06:38:18;;;;;;;;;;;22.20;98.20;;;;;;4914573;29;19911;-81
2020/12/15 06:40:45;;;;;;;;;;;22.20;98.40;;;;;;4897466;29;19927;-80
2020/12/15 06:43:18;;;;;;;;;;;22.20;98.30;;;;;;4914614;29;19922;-80
2020/12/15 06:45:47;;;;;;;;;;;22.20;98.30;;;;;;4915945;29;20491;-80
2020/12/15 06:48:22;;;;;;;;;;;22.20;98.00;;;;;;4913745;29;19911;-80
2020/12/15 06:50:49;;;;;;;;;;;22.20;98.10;;;;;;4897405;29;19926;-80
2020/12/15 06:53:18;;;;;;;;;;;22.20;98.10;;;;;;4893806;29;20005;-78
2020/12/15 06:55:45;;;;;;;;;;;22.20;98.00;;;;;;4914063;29;20002;-82
2020/12/15 06:58:22;;;;;;;;;;;22.20;98.10;;;;;;4914386;29;19911;-81
2020/12/15 07:00:49;;;;;;;;;;;22.20;98.10;;;;;;4913254;29;19918;-83
2020/12/15 07:03:16;;;;;;;;;;;22.20;98.10;;;;;;4934500;29;19922;-83
2020/12/15 07:05:43;;;;;;;;;;;22.10;98.10;;;;;;4945861;29;19914;-81
2020/12/15 07:08:11;;;;;;;;;;;22.10;98.00;;;;;;4934825;29;19917;-82
2020/12/15 07:10:44;;;;;;;;;;;22.20;98.20;;;;;;4933835;29;19926;-78
2020/12/15 07:13:11;;;;;;;;;;;22.10;98.40;;;;;;4921734;29;19935;-82
2020/12/15 07:15:41;;;;;;;;;;;22.20;98.30;;;;;;4914362;29;19911;-84
2020/12/15 07:18:12;;;;;;;;;;;22.10;98.50;;;;;;4915257;29;19914;-82
2020/12/15 07:20:39;;;;;;;;;;;22.10;98.40;;;;;;4894851;29;19919;-83
2020/12/15 07:23:05;;;;;;;;;;;22.10;98.40;;;;;;4913281;29;20421;-79
2020/12/15 07:25:32;;;;;;;;;;;22.00;98.40;;;;;;4913492;29;20346;-82
2020/12/15 07:28:14;;;;;;;;;;;22.00;98.50;;;;;;4913701;29;19921;-81
2020/12/15 07:30:41;;;;;;;;;;;22.00;98.50;;;;;;4913842;29;19914;-82
2020/12/15 07:33:15;;;;;;;;;;;22.00;98.50;;;;;;4914053;29;19957;-79
2020/12/15 07:35:42;;;;;;;;;;;22.00;98.60;;;;;;4914399;29;19958;-84
2020/12/15 07:38:08;;;;;;;;;;;22.00;98.80;;;;;;4914937;29;19915;-81
2020/12/15 07:40:35;;;;;;;;;;;22.00;98.90;;;;;;4922546;29;19965;-81
2020/12/15 07:43:04;;;;;;;;;;;21.90;98.90;;;;;;4917524;29;20394;-81
2020/12/15 07:45:32;;;;;;;;;;;21.80;98.90;;;;;;4914748;29;19967;-78
2020/12/15 07:48:04;;;;;;;;;;;21.80;99.00;;;;;;4915286;29;19907;-85
2020/12/15 07:50:38;;;;;;;;;;;21.80;99.00;;;;;;4912799;29;19997;-80
2020/12/15 07:53:09;;;;;;;;;;;21.80;99.10;;;;;;4902782;29;20366;-77
2020/12/15 07:55:36;;;;;;;;;;;21.80;99.20;;;;;;4926039;29;20307;-83
2020/12/15 07:58:03;;;;;;;;;;;21.70;99.60;;;;;;4914839;29;19942;-80
2020/12/15 08:00:30;;;;;;;;;;;21.70;99.50;;;;;;4922063;29;19912;-80
2020/12/15 08:03:01;;;;;;;;;;;21.70;99.70;;;;;;4911718;29;19945;-84
2020/12/15 08:05:28;;;;;;;;;;;21.70;99.80;;;;;;4897386;29;19926;-82
2020/12/15 08:07:56;;;;;;;;;;;21.60;99.90;;;;;;4898822;29;20347;-81
2020/12/15 08:10:27;;;;;;;;;;;21.60;99.90;;;;;;4899187;29;19907;-83
2020/12/15 08:13:06;;;;;;;;;;;21.60;99.90;;;;;;4920456;29;19914;-82
2020/12/15 08:15:42;;;;;;;;;;;21.50;99.90;;;;;;4920308;29;19907;-82
2020/12/15 08:18:10;;;;;;;;;;;21.50;99.90;;;;;;4920809;29;20354;-84
2020/12/15 08:20:37;;;;;;;;;;;21.50;99.90;;;;;;4919022;29;19918;-83
2020/12/15 08:29:10;;;;;;;;;;;21.50;99.90;;;;;;4835911;29;20415;-84
2020/12/15 08:31:41;;;;;;;;;;;21.40;99.90;;;;;;4905347;29;19914;-80
2020/12/15 08:34:39;;;;;;;;;;;21.40;99.90;;;;;;4905387;29;19907;-83
2020/12/15 08:37:06;;;;;;;;;;;21.40;99.90;;;;;;4900112;29;19998;-84
2020/12/15 08:39:47;;;;;;;;;;;;;;;;;;;;;
2020/12/15 08:42:17;;;;;;;;;;;21.40;99.90;;;;;;4921021;29;19911;-84
2020/12/15 08:44:43;;;;;;;;;;;21.40;99.90;;;;;;4916472;29;19911;-84
2020/12/15 08:47:15;;;;;;;;;;;21.30;99.90;;;;;;4924545;29;19911;-85
2020/12/15 08:49:56;;;;;;;;;;;21.30;99.90;;;;;;4925659;29;19954;-81
2020/12/15 08:52:29;;;;;;;;;;;21.30;99.90;;;;;;4906543;29;19955;-84
2020/12/15 08:55:02;;;;;;;;;;;21.30;99.90;;;;;;4923135;29;20642;-85
2020/12/15 08:57:32;;;;;;;;;;;21.30;99.90;;;;;;4922292;29;19918;-84
2020/12/15 09:00:17;;;;;;;;;;;21.30;99.90;;;;;;4922364;29;19943;-85
2020/12/15 09:02:47;;;;;;;;;;;21.30;99.90;;;;;;4921189;29;19919;-82
2020/12/15 09:05:35;;;;;;;;;;;21.30;99.90;;;;;;4904845;29;19953;-84
2020/12/15 09:08:05;;;;;;;;;;;21.30;99.90;;;;;;4920756;29;19962;-85
2020/12/15 09:16:10;;;;;;;;;;;21.30;99.90;;;;;;4897808;29;20006;-84
2020/12/15 09:18:40;;;;;;;;;;;21.30;99.90;;;;;;4904770;29;19907;-82
2020/12/15 09:21:14;;;;;;;;;;;21.30;99.90;;;;;;4903704;29;19907;-83
2020/12/15 09:23:44;;;;;;;;;;;21.30;99.90;;;;;;4903838;29;19915;-83
2020/12/15 09:26:11;;;;;;;;;;;21.30;99.90;;;;;;4921380;29;19915;-81
2020/12/15 09:28:40;;;;;;;;;;;21.40;99.90;;;;;;4903612;29;19914;-83
2020/12/15 09:31:07;;;;;;;;;;;21.40;99.90;;;;;;4907645;29;19950;-82
2020/12/15 09:33:34;;;;;;;;;;;21.40;99.90;;;;;;4904296;29;19908;-81
2020/12/15 09:36:34;;;;;;;;;;;21.40;99.90;;;;;;4924389;29;19978;-84
2020/12/15 09:39:04;;;;;;;;;;;21.40;99.90;;;;;;4915686;29;19914;-82
2020/12/15 09:41:34;;;;;;;;;;;21.40;99.90;;;;;;4931855;29;19915;-85
2020/12/15 09:44:01;;;;;;;;;;;21.40;99.90;;;;;;4932724;29;19922;-80
2020/12/15 09:46:28;;;;;;;;;;;21.30;99.90;;;;;;4916784;29;19907;-83
2020/12/15 09:48:55;;;;;;;;;;;21.40;99.90;;;;;;4927978;29;19965;-84
2020/12/15 09:51:22;;;;;;;;;;;21.40;99.90;;;;;;4929525;29;19998;-84
2020/12/15 09:53:52;;;;;;;;;;;21.40;99.90;;;;;;4924890;29;19915;-82
2020/12/15 09:56:18;;;;;;;;;;;21.40;99.90;;;;;;4931461;29;20014;-82
2020/12/15 09:58:48;;;;;;;;;;;21.40;99.90;;;;;;4907122;29;19951;-87
2020/12/15 10:01:18;;;;;;;;;;;21.40;99.90;;;;;;4919643;29;19918;-81
2020/12/15 10:03:44;;;;;;;;;;;21.40;99.90;;;;;;4931102;29;20373;-84
2020/12/15 10:06:19;;;;;;;;;;;21.40;99.90;;;;;;4893200;29;20349;-85
2020/12/15 10:08:45;;;;;;;;;;;21.40;99.90;;;;;;4915742;29;20050;-84
2020/12/15 10:11:18;;;;;;;;;;;21.40;99.90;;;;;;4910990;29;19907;-84
2020/12/15 10:13:45;;;;;;;;;;;21.40;99.90;;;;;;4924558;29;19918;-83
2020/12/15 10:16:12;;;;;;;;;;;21.40;99.90;;;;;;4920636;29;19959;-85
2020/12/15 10:18:38;;;;;;;;;;;21.40;99.90;;;;;;4915628;29;19919;-86
2020/12/15 10:21:08;;;;;;;;;;;21.40;99.90;;;;;;4943960;29;19917;-81
2020/12/15 10:23:37;;;;;;;;;;;21.40;99.90;;;;;;4926218;29;19934;-79
2020/12/15 10:26:06;;;;;;;;;;;21.40;99.90;;;;;;4918056;29;19984;-83
2020/12/15 10:28:33;;;;;;;;;;;21.40;99.90;;;;;;4945839;29;19950;-85
2020/12/15 10:31:10;;;;;;;;;;;21.40;99.90;;;;;;4931131;29;19915;-87
2020/12/15 10:34:06;;;;;;;;;;;21.40;99.90;;;;;;4935801;29;19919;-87
2020/12/15 10:36:32;;;;;;;;;;;21.40;99.90;;;;;;4930280;29;19958;-84
2020/12/15 10:38:59;;;;;;;;;;;21.40;99.90;;;;;;4930539;29;19998;-87
2020/12/15 10:41:39;;;;;;;;;;;21.40;99.90;;;;;;4914285;29;20327;-85
2020/12/15 10:44:15;;;;;;;;;;;21.40;99.90;;;;;;4921869;29;20296;-86
2020/12/15 10:46:42;;;;;;;;;;;21.40;99.90;;;;;;4920824;29;19941;-84
2020/12/15 10:49:12;;;;;;;;;;;21.30;99.90;;;;;;4916084;29;19942;-88
2020/12/15 10:51:41;;;;;;;;;;;21.30;99.90;;;;;;4923542;29;19926;-85
2020/12/15 10:54:11;;;;;;;;;;;21.30;99.90;;;;;;4921674;29;19915;-82
2020/12/15 10:56:37;;;;;;;;;;;21.30;99.90;;;;;;4914415;29;19997;-84
2020/12/15 10:59:07;;;;;;;;;;;21.30;99.90;;;;;;4916882;29;20366;-88
2020/12/15 11:01:33;;;;;;;;;;;21.30;99.90;;;;;;4913301;29;19970;-80
2020/12/15 11:04:00;;;;;;;;;;;21.30;99.90;;;;;;4913312;29;19927;-86
2020/12/15 11:06:28;;;;;;;;;;;21.30;99.90;;;;;;4909858;29;19907;-82
2020/12/15 11:08:56;;;;;;;;;;;21.20;99.90;;;;;;4914138;29;20337;-82
2020/12/15 11:11:22;;;;;;;;;;;21.30;99.90;;;;;;4915109;29;20347;-83
2020/12/15 11:13:49;;;;;;;;;;;21.30;99.90;;;;;;4915157;29;19907;-83
2020/12/15 11:16:24;;;;;;;;;;;21.30;99.90;;;;;;4899522;29;19907;-83
2020/12/15 11:18:51;;;;;;;;;;;21.30;99.90;;;;;;4898050;29;19907;-83
2020/12/15 11:21:18;;;;;;;;;;;21.30;99.90;;;;;;4916499;29;19911;-82
2020/12/15 11:23:44;;;;;;;;;;;21.30;99.90;;;;;;4914232;29;20291;-83
2020/12/15 11:26:16;;;;;;;;;;;21.30;99.90;;;;;;4911499;29;19967;-83
2020/12/15 11:28:43;;;;;;;;;;;21.30;99.90;;;;;;4899468;29;20361;-83
2020/12/15 11:31:12;;;;;;;;;;;21.30;99.90;;;;;;4912441;29;19946;-83
2020/12/15 11:33:42;;;;;;;;;;;21.30;99.90;;;;;;4935238;29;19914;-84
2020/12/15 11:36:09;;;;;;;;;;;21.30;99.90;;;;;;4937347;29;19911;-84
2020/12/15 11:38:39;;;;;;;;;;;21.30;99.90;;;;;;4919030;29;19955;-83
2020/12/15 11:41:09;;;;;;;;;;;21.30;99.90;;;;;;4917818;29;20374;-83
2020/12/15 11:43:35;;;;;;;;;;;21.30;99.90;;;;;;4916850;29;19922;-83
2020/12/15 11:46:02;;;;;;;;;;;21.30;99.90;;;;;;4916574;29;19907;-85
2020/12/15 11:48:38;;;;;;;;;;;21.30;99.90;;;;;;4916536;29;19907;-83
2020/12/15 11:51:05;;;;;;;;;;;21.40;99.90;;;;;;4897159;29;19963;-82
2020/12/15 11:53:31;;;;;;;;;;;21.30;99.90;;;;;;4923077;29;19922;-81
2020/12/15 11:56:01;;;;;;;;;;;21.30;99.90;;;;;;4917027;29;20197;-81
2020/12/15 11:58:28;;;;;;;;;;;21.30;99.90;;;;;;4915172;29;20034;-82
2020/12/15 12:00:55;;;;;;;;;;;21.30;99.90;;;;;;4898546;29;19989;-82
2020/12/15 12:03:22;;;;;;;;;;;21.30;99.90;;;;;;4909417;29;19918;-82
2020/12/15 12:05:49;;;;;;;;;;;21.30;99.90;;;;;;4935997;29;19922;-85
2020/12/15 12:08:15;;;;;;;;;;;21.30;99.90;;;;;;4917636;29;19911;-78
2020/12/15 12:10:46;;;;;;;;;;;21.30;99.90;;;;;;4919784;29;20050;-87
2020/12/15 12:13:13;;;;;;;;;;;21.30;99.90;;;;;;4934484;29;19962;-84
2020/12/15 12:15:39;;;;;;;;;;;21.30;99.90;;;;;;4925212;29;19927;-84
2020/12/15 12:18:06;;;;;;;;;;;21.30;99.90;;;;;;4926015;29;19911;-82
2020/12/15 12:20:35;;;;;;;;;;;21.30;99.90;;;;;;4916555;29;20313;-84
2020/12/15 12:23:03;;;;;;;;;;;21.30;99.90;;;;;;4914557;29;20371;-82
2020/12/15 12:25:30;;;;;;;;;;;21.30;99.90;;;;;;4919884;29;19907;-83
2020/12/15 12:27:56;;;;;;;;;;;21.30;99.90;;;;;;4916526;29;19911;-83
2020/12/15 12:30:23;;;;;;;;;;;21.30;99.90;;;;;;4910231;29;20410;-84
2020/12/15 12:32:50;;;;;;;;;;;21.30;99.90;;;;;;4917227;29;20345;-83
2020/12/15 12:35:17;;;;;;;;;;;21.30;99.90;;;;;;4920130;29;19918;-84
2020/12/15 12:37:44;;;;;;;;;;;21.30;99.90;;;;;;4915108;29;19999;-83
2020/12/15 12:40:11;;;;;;;;;;;21.30;99.90;;;;;;4916204;29;19907;-83
2020/12/15 12:42:39;;;;;;;;;;;21.30;99.90;;;;;;4917280;29;19989;-83
2020/12/15 12:45:06;;;;;;;;;;;21.30;99.90;;;;;;4917905;29;20498;-83
2020/12/15 12:47:35;;;;;;;;;;;21.30;99.90;;;;;;4916553;29;19907;-84
2020/12/15 12:50:02;;;;;;;;;;;21.30;99.90;;;;;;4915808;29;20401;-85
2020/12/15 12:52:31;;;;;;;;;;;21.30;99.90;;;;;;4916082;29;20392;-84
2020/12/15 12:54:58;;;;;;;;;;;21.30;99.90;;;;;;4915571;29;20118;-84
2020/12/15 12:57:25;;;;;;;;;;;21.30;99.90;;;;;;4918008;29;19907;-85
2020/12/15 12:59:51;;;;;;;;;;;21.30;99.90;;;;;;4917313;29;19907;-83
2020/12/15 13:02:21;;;;;;;;;;;21.30;99.90;;;;;;4914025;29;19927;-83
2020/12/15 13:04:49;;;;;;;;;;;21.30;99.90;;;;;;4916525;29;19911;-85
2020/12/15 13:07:15;;;;;;;;;;;21.30;99.90;;;;;;4918914;29;19954;-84
2020/12/15 13:09:42;;;;;;;;;;;21.30;99.90;;;;;;4900107;29;19959;-84
2020/12/15 13:12:11;;;;;;;;;;;21.30;99.90;;;;;;4902183;29;20039;-85
2020/12/15 13:14:38;;;;;;;;;;;21.30;99.90;;;;;;4899970;29;20273;-85
2020/12/15 13:17:05;;;;;;;;;;;21.30;99.90;;;;;;4919196;29;20037;-83
2020/12/15 13:19:31;;;;;;;;;;;21.30;99.90;;;;;;4923180;29;19965;-84
2020/12/15 13:22:01;;;;;;;;;;;21.30;99.90;;;;;;4926682;29;19915;-84
2020/12/15 13:24:28;;;;;;;;;;;21.30;99.90;;;;;;4923056;29;19959;-84
2020/12/15 13:26:57;;;;;;;;;;;21.30;99.90;;;;;;4916486;29;19911;-83
2020/12/15 13:29:27;;;;;;;;;;;21.30;99.90;;;;;;4918304;29;20369;-83
2020/12/15 13:31:53;;;;;;;;;;;21.30;99.90;;;;;;4921743;29;20432;-82
2020/12/15 13:34:20;;;;;;;;;;;21.30;99.90;;;;;;4933621;29;19995;-83
2020/12/15 13:36:47;;;;;;;;;;;21.30;99.90;;;;;;4922623;29;19962;-84
2020/12/15 13:39:14;;;;;;;;;;;21.30;99.90;;;;;;4931988;29;19911;-83
2020/12/15 13:41:41;;;;;;;;;;;21.30;99.90;;;;;;4931921;29;20662;-83
2020/12/15 13:44:07;;;;;;;;;;;21.30;99.90;;;;;;4915778;29;19922;-83
2020/12/15 13:46:34;;;;;;;;;;;21.30;99.90;;;;;;4914343;29;19918;-83
2020/12/15 13:49:02;;;;;;;;;;;21.30;99.90;;;;;;4918455;29;19907;-84
2020/12/15 13:51:37;;;;;;;;;;;21.30;99.90;;;;;;4929826;29;20256;-85
2020/12/15 13:54:03;;;;;;;;;;;21.30;99.90;;;;;;4928583;29;19918;-83
2020/12/15 13:56:30;;;;;;;;;;;21.30;99.90;;;;;;4918922;29;19942;-84
2020/12/15 13:58:58;;;;;;;;;;;21.30;99.90;;;;;;4911334;29;19915;-83
2020/12/15 14:01:25;;;;;;;;;;;21.30;99.90;;;;;;4918747;29;19914;-84
2020/12/15 14:03:52;;;;;;;;;;;21.30;99.90;;;;;;4915873;29;19922;-83
2020/12/15 14:06:22;;;;;;;;;;;21.30;99.90;;;;;;4921321;29;19997;-83
2020/12/15 14:08:49;;;;;;;;;;;21.30;99.90;;;;;;4913005;29;20281;-84
2020/12/15 14:11:16;;;;;;;;;;;21.30;99.90;;;;;;4918501;29;19914;-81
2020/12/15 14:13:43;;;;;;;;;;;21.30;99.90;;;;;;4917939;29;19911;-83
2020/12/15 14:16:16;;;;;;;;;;;21.30;99.90;;;;;;4917558;29;19910;-82
2020/12/15 14:18:42;;;;;;;;;;;21.30;99.90;;;;;;4916845;29;20295;-84
2020/12/15 14:21:09;;;;;;;;;;;21.30;99.90;;;;;;4918377;29;20319;-83
2020/12/15 14:23:39;;;;;;;;;;;21.30;99.90;;;;;;4920375;29;19969;-83
2020/12/15 14:26:07;;;;;;;;;;;21.30;99.90;;;;;;4923298;29;20380;-83
2020/12/15 14:28:34;;;;;;;;;;;21.30;99.90;;;;;;4927283;29;20362;-82
2020/12/15 14:31:00;;;;;;;;;;;21.30;99.90;;;;;;4917468;29;20369;-83
2020/12/15 14:33:27;;;;;;;;;;;21.30;99.90;;;;;;4917660;29;20058;-83
2020/12/15 14:35:58;;;;;;;;;;;21.30;99.90;;;;;;4915296;29;19967;-85
2020/12/15 14:38:26;;;;;;;;;;;21.30;99.90;;;;;;4900641;29;19907;-82
2020/12/15 14:40:53;;;;;;;;;;;21.30;99.90;;;;;;4922671;29;19910;-83